createdAt,value
2022-08-19T00:02:05.802Z,19.1
2022-08-19T00:12:06.376Z,19.0
2022-08-19T00:22:06.495Z,19.0
2022-08-19T00:27:25.050Z,19.1
2022-08-19T00:32:06.930Z,18.9
2022-08-19T00:52:07.629Z,18.9
2022-08-19T00:57:07.513Z,18.8
2022-08-19T01:12:08.028Z,18.8
2022-08-19T01:22:14.022Z,18.7
2022-08-19T01:27:08.508Z,18.6
2022-08-19T01:32:08.659Z,18.6
2022-08-19T01:47:09.080Z,18.5
2022-08-19T01:52:09.229Z,18.5
2022-08-19T02:02:09.399Z,18.4
2022-08-19T02:07:09.470Z,18.4
2022-08-19T02:12:09.534Z,18.4
2022-08-19T02:17:09.784Z,18.3
2022-08-19T02:22:09.730Z,18.1
2022-08-19T02:27:09.850Z,18.2
2022-08-19T02:42:10.053Z,17.9
2022-08-19T02:47:10.091Z,17.9
2022-08-19T02:52:10.243Z,17.9
2022-08-19T03:02:10.398Z,17.7
2022-08-19T03:07:11.207Z,17.7
2022-08-19T03:12:10.527Z,17.7
2022-08-19T03:17:10.498Z,17.6
2022-08-19T03:22:10.602Z,17.5
2022-08-19T03:27:10.736Z,17.3
2022-08-19T03:32:32.653Z,17.3
2022-08-19T03:37:10.888Z,17.3
2022-08-19T03:42:38.394Z,17.2
2022-08-19T03:52:10.971Z,17.1
2022-08-19T03:57:11.015Z,17.1
2022-08-19T04:02:11.129Z,17.1
2022-08-19T04:07:11.084Z,17.1
2022-08-19T04:12:11.132Z,17.1
2022-08-19T04:17:11.102Z,16.9
2022-08-19T04:22:11.216Z,16.9
2022-08-19T04:32:11.146Z,16.9
2022-08-19T04:37:11.143Z,16.9
2022-08-19T04:42:11.161Z,16.8
2022-08-19T04:47:11.644Z,16.7
2022-08-19T04:52:11.237Z,16.7
2022-08-19T05:12:11.314Z,16.4
2022-08-19T05:17:27.090Z,16.4
2022-08-19T05:22:11.232Z,16.4
2022-08-19T05:32:11.220Z,16.2
2022-08-19T05:37:11.186Z,16.2
2022-08-19T05:42:11.266Z,16.1
2022-08-19T05:47:11.199Z,16.1
2022-08-19T05:52:11.169Z,16.2
2022-08-19T06:02:11.235Z,16.2
2022-08-19T06:07:20.929Z,16.2
2022-08-19T06:12:11.053Z,16.2
2022-08-19T06:17:11.071Z,16.3
2022-08-19T06:22:11.099Z,16.1
2022-08-19T06:27:11.088Z,16.1
2022-08-19T06:32:10.982Z,16.1
2022-08-19T06:37:11.024Z,16.2
2022-08-19T06:42:11.248Z,16.2
2022-08-19T06:47:14.776Z,16.2
2022-08-19T06:52:14.103Z,16.3
2022-08-19T06:57:10.876Z,16.4
2022-08-19T07:12:10.784Z,16.3
2022-08-19T07:17:10.745Z,16.5
2022-08-19T07:22:13.185Z,16.4
2022-08-19T07:27:15.124Z,16.4
2022-08-19T07:32:11.621Z,16.4
2022-08-19T07:37:10.655Z,16.5
2022-08-19T07:42:11.002Z,16.3
2022-08-19T07:45:18.006Z,16.2
2022-08-19T07:45:40.013Z,16.2
2022-08-19T07:47:47.152Z,16.2
2022-08-19T07:52:10.606Z,16.3
2022-08-19T07:57:10.569Z,16.6
2022-08-19T08:02:10.892Z,16.7
2022-08-19T08:07:10.542Z,17.0
2022-08-19T08:12:32.529Z,16.9
2022-08-19T08:17:10.687Z,17.0
2022-08-19T08:22:10.473Z,17.1
2022-08-19T08:27:11.425Z,17.1
2022-08-19T08:42:17.508Z,17.4
2022-08-19T08:47:10.722Z,17.9
2022-08-19T08:52:10.705Z,18.2
2022-08-19T08:57:11.071Z,18.1
2022-08-19T09:07:26.198Z,18.3
2022-08-19T09:12:11.730Z,18.8
2022-08-19T09:17:11.209Z,18.8
2022-08-19T09:22:11.342Z,18.9
2022-08-19T09:27:18.410Z,19.2
2022-08-19T09:32:26.385Z,18.8
2022-08-19T09:37:11.587Z,19.2
2022-08-19T09:42:16.319Z,19.6
2022-08-19T09:47:11.888Z,20.2
2022-08-19T09:52:13.613Z,20.2
2022-08-19T09:57:12.202Z,20.4
2022-08-19T10:02:12.347Z,20.2
2022-08-19T10:07:12.577Z,20.5
2022-08-19T10:12:12.758Z,20.6
2022-08-19T10:17:17.673Z,21.2
2022-08-19T10:22:13.189Z,21.1
2022-08-19T10:27:13.476Z,21.1
2022-08-19T10:32:14.352Z,21.9
2022-08-19T10:37:14.376Z,22.1
2022-08-19T10:42:14.530Z,22.2
2022-08-19T10:47:17.830Z,22.7
2022-08-19T10:57:15.030Z,22.9
2022-08-19T11:02:15.317Z,23.0
2022-08-19T11:07:15.661Z,22.7
2022-08-19T11:12:15.994Z,21.8
2022-08-19T11:22:16.636Z,22.3
2022-08-19T11:27:16.985Z,22.6
2022-08-19T11:32:17.292Z,21.9
2022-08-19T11:37:17.581Z,22.8
2022-08-19T11:47:18.262Z,23.2
2022-08-19T11:52:18.597Z,24.4
2022-08-19T11:57:18.983Z,22.9
2022-08-19T12:02:19.499Z,22.7
2022-08-19T12:07:19.833Z,22.2
2022-08-19T12:12:20.093Z,23.6
2022-08-19T12:17:20.453Z,24.9
2022-08-19T12:22:20.853Z,26.0
2022-08-19T12:31:01.757Z,26.5
2022-08-19T12:32:21.543Z,26.3
2022-08-19T12:37:22.004Z,26.7
2022-08-19T12:42:22.472Z,26.9
2022-08-19T12:47:22.901Z,26.7
2022-08-19T12:52:23.708Z,24.2
2022-08-19T12:57:24.499Z,23.2
2022-08-19T13:02:24.402Z,22.7
2022-08-19T13:07:24.717Z,24.8
2022-08-19T13:12:25.150Z,23.2
2022-08-19T13:27:26.515Z,23.9
2022-08-19T13:32:26.926Z,23.6
2022-08-19T13:37:27.372Z,23.4
2022-08-19T13:52:28.626Z,23.8
2022-08-19T13:57:28.928Z,22.6
2022-08-19T14:12:30.129Z,26.2
2022-08-19T14:17:30.637Z,27.7
2022-08-19T14:22:31.165Z,25.2
2022-08-19T14:27:31.682Z,23.6
2022-08-19T14:32:32.187Z,25.6
2022-08-19T14:37:32.698Z,27.4
2022-08-19T14:42:36.403Z,24.4
2022-08-19T14:47:33.712Z,24.8
2022-08-19T14:52:34.529Z,25.3
2022-08-19T14:53:18.728Z,26.2
2022-08-19T14:57:34.718Z,26.6
2022-08-19T15:02:35.578Z,27.4
2022-08-19T15:07:35.906Z,23.9
2022-08-19T15:10:59.804Z,25.9
2022-08-19T15:12:37.344Z,25.5
2022-08-19T15:17:46.076Z,23.2
2022-08-19T15:22:37.248Z,22.4
2022-08-19T15:27:37.661Z,22.8
2022-08-19T15:32:38.043Z,22.6
2022-08-19T15:37:38.434Z,22.7
2022-08-19T15:41:48.847Z,22.8
2022-08-19T15:42:38.826Z,22.8
2022-08-19T15:47:39.258Z,22.6
2022-08-19T15:52:44.987Z,22.4
2022-08-19T15:57:44.351Z,22.2
2022-08-19T16:02:40.324Z,21.9
2022-08-19T16:07:40.936Z,22.0
2022-08-19T16:12:41.663Z,21.7
2022-08-19T16:17:41.416Z,21.9
2022-08-19T16:37:42.601Z,21.7
2022-08-19T16:42:42.902Z,21.5
2022-08-19T16:47:43.205Z,21.1
2022-08-19T16:50:09.264Z,21.2
2022-08-19T16:52:43.500Z,21.3
2022-08-19T17:02:44.170Z,20.9
2022-08-19T17:12:44.671Z,20.7
2022-08-19T17:22:45.245Z,20.6
2022-08-19T17:27:45.458Z,20.3
2022-08-19T17:37:45.936Z,20.1
2022-08-19T17:42:46.288Z,20.0
2022-08-19T17:47:46.407Z,20.0
2022-08-19T18:07:47.135Z,19.6
2022-08-19T18:12:47.282Z,19.7
2022-08-19T18:22:47.713Z,19.5
2022-08-19T18:27:48.030Z,19.4
2022-08-19T18:32:48.135Z,19.2
2022-08-19T18:37:48.377Z,19.1
2022-08-19T18:47:48.689Z,18.9
2022-08-19T18:52:48.750Z,18.7
2022-08-19T18:57:50.173Z,18.8
2022-08-19T19:02:49.200Z,18.6
2022-08-19T19:12:49.455Z,18.5
2022-08-19T19:17:49.616Z,18.4
2022-08-19T19:22:49.792Z,18.4
2022-08-19T19:27:51.981Z,18.3
2022-08-19T19:31:39.034Z,18.2
2022-08-19T19:42:50.306Z,18.1
2022-08-19T19:47:51.591Z,18.0
2022-08-19T19:57:50.828Z,17.9
2022-08-19T20:02:51.052Z,17.8
2022-08-19T20:12:51.031Z,17.7
2022-08-19T20:17:52.598Z,17.6
2022-08-19T20:27:51.342Z,17.4
2022-08-19T20:32:52.992Z,17.3
2022-08-19T20:37:56.080Z,17.2
2022-08-19T20:42:52.706Z,17.2
2022-08-19T20:47:51.783Z,17.1
2022-08-19T20:49:42.165Z,17.0
2022-08-19T20:52:43.221Z,16.9
2022-08-19T20:52:53.762Z,16.9
2022-08-19T20:57:06.963Z,16.9
2022-08-19T20:57:53.644Z,16.8
2022-08-19T21:07:53.528Z,16.4
2022-08-19T21:17:52.340Z,16.2
2022-08-19T21:22:52.335Z,16.2
2022-08-19T21:27:52.402Z,16.2
2022-08-19T21:47:55.082Z,16.0
2022-08-19T21:52:53.780Z,15.8
2022-08-19T21:57:52.781Z,15.8
2022-08-19T22:02:52.721Z,15.5
2022-08-19T22:07:52.699Z,15.4
2022-08-19T22:12:52.730Z,15.3
2022-08-19T22:17:52.700Z,15.2
2022-08-19T22:22:55.455Z,15.3
2022-08-19T22:27:52.696Z,15.4
2022-08-19T22:32:56.081Z,15.3
2022-08-19T22:35:02.277Z,15.4
2022-08-19T22:37:52.704Z,15.3
2022-08-19T22:42:53.825Z,15.2
2022-08-19T22:47:39.334Z,15.2
2022-08-19T22:47:57.063Z,15.2
2022-08-19T22:52:52.707Z,14.8
2022-08-19T22:57:52.895Z,14.8
2022-08-19T23:02:52.750Z,14.7
2022-08-19T23:07:53.044Z,14.6
2022-08-19T23:12:52.685Z,14.6
2022-08-19T23:17:52.603Z,14.6
2022-08-19T23:22:52.528Z,14.5
2022-08-19T23:27:52.486Z,14.4
2022-08-19T23:32:52.411Z,14.4
2022-08-19T23:42:53.493Z,14.4
2022-08-19T23:47:53.293Z,14.4
2022-08-19T23:57:52.133Z,14.2
